Aeroporto :
LOGIN :

Iscrizione | Disclaimer

   EN    FR    IT 

 










Sommario :    VFR   VFR Marginale   IFR   IFR Intensivo   IFR Molto Intensivo
Visibilità : 
Base nubi : 
>= 8 km
>= 3000ft
5 / 8 km
1000 / 3000 ft
1500m / 5 km
500 / 1000 ft
800 / 1500m
200 / 500 ft
< 800m
< 200 ft
Simboli :   Temporali  Nebbia  Neve Forte  Precipitazioni Forti  Vento > 20 kt
SIGMETs :   Varie  Temporali  Ghiacco  Turbolenza  Onda orograficha  Ceneri Vulcaniche






- Altitudine del aeroporto : 38 ft
- Codice IATA : BOH


EGHH - Bournemouth

ULTIMO METAR :
  • 221650Z 11010KT 9999 FEW018 10/07 Q0990

METARs OBSOLETI :
  • 221620Z 11011KT 9999 SCT018 10/07 Q0990
  • 221550Z 11013KT 9999 FEW015 SCT020 10/07 Q0991
  • 221520Z 13014KT 9999 FEW015 SCT020 11/08 Q0991
  • 221450Z 13014KT 090V160 9999 FEW015 SCT018 11/07 Q0991
  • 221420Z 13016KT 090V160 9999 SCT015 SCT025 11/08 Q0991

TAF TAF EGHH
Valido dal 22 a 15 ore il 23 a 00 ore UTC


221359Z 2215/2224 13012KT 9999 SCT040
TEMPO 2218/2224 7000 RA
PROB30
TEMPO 2221/2224 4000 RADZ BKN009
ATIS : +44 1202 364 151
Met : +44 1202 364 158 (TAF)



MetMap, La meteo Aeronautica in un colpo d'occhio ! - Copyright ORBIFLY Dicembre 2007 - Disclaimer

ORBIFLY MET'MAP TEAM :

Programmazione e sviluppo : Alexandra Zaïnal
Concezione e sviluppo : Baudouin d'Aumeries
Co-Programmazione e sviluppo : Marc-Olivier Méhu
Supporto tecnico e logistico : Manuel Goepfert
Aiuto per la traduzione : Arnaldo La Scala

Contatto : metmap@orbifly.com




FONTI E CREDITI :

   NOAA